Terminal Aerodrome Forecast
Issued by NWS

Home | Current Version | Previous Version | Text Only | Print | Product List | Glossary On
Versions: 1 2 3 4 5 6 7 8 9 10 11 12 13
000
FTUS42 TJSJ 171100
TAFJSJ
TAF
TJSJ 171130Z 1712/1812 VRB03KT P6SM FEW025
     FM171330 06012KT P6SM FEW025
     FM172300 10004KT P6SM FEW025=

USA.gov is the U.S. government's official web portal to all federal, state and local government web resources and services.